createdAt,value
2023-04-21T00:00:56.456Z,10.35
2023-04-21T00:06:01.568Z,10.70
2023-04-21T00:11:04.582Z,9.95
2023-04-21T00:16:09.168Z,10.10
2023-04-21T00:21:12.161Z,9.38
2023-04-21T00:26:16.649Z,9.30
2023-04-21T00:31:25.431Z,9.45
2023-04-21T00:36:28.592Z,8.70
2023-04-21T00:41:31.829Z,8.90
2023-04-21T00:46:36.489Z,9.02
2023-04-21T00:51:39.299Z,9.38
2023-04-21T00:56:42.087Z,9.85
2023-04-21T01:01:46.399Z,8.85
2023-04-21T01:06:51.003Z,8.98
2023-04-21T01:12:13.275Z,9.30
2023-04-21T01:17:18.798Z,8.52
2023-04-21T01:22:24.931Z,8.43
2023-04-21T01:27:27.878Z,8.57
2023-04-21T01:32:31.529Z,8.32
2023-04-21T01:37:36.283Z,9.00
2023-04-21T01:42:42.587Z,9.00
2023-04-21T01:47:46.001Z,9.10
2023-04-21T01:52:51.017Z,9.57
2023-04-21T01:57:53.770Z,9.57
2023-04-21T02:02:56.740Z,8.88
2023-04-21T02:08:00.977Z,8.45
2023-04-21T02:13:03.904Z,8.50
2023-04-21T02:18:08.289Z,8.02
2023-04-21T02:23:12.976Z,9.30
2023-04-21T02:28:15.936Z,8.63
2023-04-21T02:33:18.679Z,8.80
2023-04-21T02:38:22.875Z,8.18
2023-04-21T02:43:25.975Z,9.13
2023-04-21T02:48:28.693Z,8.88
2023-04-21T02:53:32.975Z,8.80
2023-04-21T02:58:36.042Z,7.85
2023-04-21T03:03:38.968Z,8.02
2023-04-21T03:08:43.196Z,8.55
2023-04-21T03:13:46.119Z,8.50
2023-04-21T03:18:48.860Z,8.45
2023-04-21T03:23:54.051Z,8.30
2023-04-21T03:28:56.835Z,8.82
2023-04-21T03:34:00.054Z,8.63
2023-04-21T03:39:16.922Z,9.55
2023-04-21T03:44:22.512Z,7.90
2023-04-21T03:49:25.545Z,8.40
2023-04-21T03:54:29.651Z,8.63
2023-04-21T03:59:32.411Z,8.55
2023-04-21T04:04:35.486Z,8.73
2023-04-21T04:09:39.676Z,8.63
2023-04-21T04:14:42.427Z,8.95
2023-04-21T04:19:45.275Z,8.70
2023-04-21T04:24:49.381Z,8.40
2023-04-21T04:29:53.124Z,8.75
2023-04-21T04:34:57.441Z,8.95
2023-04-21T04:40:01.652Z,8.30
2023-04-21T04:45:05.904Z,9.13
2023-04-21T04:50:09.191Z,8.70
2023-04-21T04:55:13.624Z,9.25
2023-04-21T05:00:16.752Z,8.63
2023-04-21T05:05:20.333Z,8.98
2023-04-21T05:10:24.901Z,8.02
2023-04-21T05:15:27.703Z,9.00
2023-04-21T05:20:30.531Z,8.68
2023-04-21T05:25:34.885Z,8.73
2023-04-21T05:30:37.657Z,8.60
2023-04-21T05:35:40.710Z,8.45
2023-04-21T05:40:45.359Z,8.65
2023-04-21T05:45:48.153Z,8.77
2023-04-21T05:50:50.921Z,9.20
2023-04-21T05:55:54.985Z,9.02
2023-04-21T06:00:59.775Z,9.05
2023-04-21T06:06:04.296Z,8.32
2023-04-21T06:11:08.572Z,7.32
2023-04-21T06:16:11.509Z,8.23
2023-04-21T06:21:14.394Z,7.60
2023-04-21T06:26:23.650Z,7.32
2023-04-21T06:31:27.110Z,7.13
2023-04-21T06:36:29.905Z,7.28
2023-04-21T06:41:35.124Z,7.18
2023-04-21T06:46:38.043Z,7.00
2023-04-21T06:51:40.943Z,7.32
2023-04-21T06:56:45.165Z,7.85
2023-04-21T07:01:49.063Z,7.20
2023-04-21T07:06:51.997Z,6.53
2023-04-21T07:11:56.501Z,6.72
2023-04-21T07:16:59.502Z,7.10
2023-04-21T07:22:02.376Z,7.32
2023-04-21T07:27:07.262Z,7.05
2023-04-21T07:32:10.417Z,7.35
2023-04-21T07:37:13.477Z,7.07
2023-04-21T07:42:19.036Z,8.18
2023-04-21T07:47:21.963Z,12.10
2023-04-21T07:52:24.932Z,7.32
2023-04-21T07:57:29.202Z,7.10
2023-04-21T08:02:32.043Z,7.82
2023-04-21T08:07:34.915Z,6.95
2023-04-21T08:12:39.253Z,7.20
2023-04-21T08:17:42.191Z,7.43
2023-04-21T08:22:47.374Z,7.45
2023-04-21T08:27:53.823Z,7.65
2023-04-21T08:32:56.690Z,7.70
2023-04-21T08:37:59.432Z,8.05
2023-04-21T08:43:03.656Z,8.30
2023-04-21T08:48:07.763Z,7.95
2023-04-21T08:53:14.707Z,8.07
2023-04-21T08:58:18.953Z,7.85
2023-04-21T09:03:26.263Z,7.50
2023-04-21T09:08:30.476Z,8.10
2023-04-21T09:13:35.965Z,7.93
2023-04-21T09:18:40.404Z,8.48
2023-04-21T09:23:44.564Z,7.72
2023-04-21T09:28:50.234Z,7.50
2023-04-21T09:33:59.645Z,7.82
2023-04-21T09:44:12.843Z,8.02
2023-04-21T09:49:18.490Z,7.28
2023-04-21T09:59:31.912Z,7.80
2023-04-21T10:04:36.177Z,7.70
2023-04-21T10:09:44.084Z,8.05
2023-04-21T10:14:52.205Z,7.57
2023-04-21T10:25:02.123Z,7.47
2023-04-21T10:30:22.481Z,7.50
2023-04-21T10:35:26.077Z,7.38
2023-04-21T10:40:44.318Z,7.72
2023-04-21T10:45:49.459Z,7.22
2023-04-21T10:50:52.909Z,7.88
2023-04-21T10:55:56.156Z,7.68
2023-04-21T11:01:03.323Z,7.40
2023-04-21T11:06:15.666Z,7.45
2023-04-21T11:11:23.693Z,7.22
2023-04-21T11:16:28.115Z,7.03
2023-04-21T11:21:31.089Z,6.85
2023-04-21T11:26:34.602Z,6.95
2023-04-21T11:31:40.511Z,6.60
2023-04-21T11:36:45.369Z,6.82
2023-04-21T11:41:49.935Z,6.93
2023-04-21T11:46:54.290Z,6.85
2023-04-21T11:51:57.675Z,6.93
2023-04-21T11:57:02.897Z,6.57
2023-04-21T12:02:14.156Z,6.97
2023-04-21T12:07:23.989Z,6.75
2023-04-21T12:12:27.998Z,6.93
2023-04-21T12:17:38.899Z,6.45
2023-04-21T12:22:41.688Z,6.25
2023-04-21T12:27:49.981Z,6.43
2023-04-21T12:32:55.765Z,6.35
2023-04-21T12:37:58.835Z,6.00
2023-04-21T12:43:01.654Z,6.10
2023-04-21T12:48:06.655Z,6.15
2023-04-21T12:53:09.496Z,6.30
2023-04-21T12:58:12.726Z,6.35
2023-04-21T13:03:16.944Z,5.88
2023-04-21T13:08:19.967Z,7.05
2023-04-21T13:13:22.796Z,6.18
2023-04-21T13:18:27.040Z,6.53
2023-04-21T13:23:30.349Z,6.18
2023-04-21T13:28:33.318Z,6.30
2023-04-21T13:33:37.643Z,6.18
2023-04-21T13:38:40.945Z,6.18
2023-04-21T13:43:43.845Z,6.22
2023-04-21T13:48:48.104Z,6.20
2023-04-21T13:53:50.909Z,6.18
2023-04-21T13:58:55.102Z,6.40
2023-04-21T14:03:59.476Z,5.95
2023-04-21T14:09:02.438Z,6.90
2023-04-21T14:14:09.565Z,6.38
2023-04-21T14:24:18.400Z,6.60
2023-04-21T14:29:21.324Z,6.38
2023-04-21T14:34:25.811Z,6.00
2023-04-21T14:39:28.625Z,6.32
2023-04-21T14:44:31.400Z,6.30
2023-04-21T14:49:36.109Z,6.65
2023-04-21T14:54:39.357Z,6.60
2023-04-21T14:59:43.737Z,6.18
2023-04-21T15:04:48.312Z,6.40
2023-04-21T15:09:51.382Z,6.50
2023-04-21T15:14:54.237Z,6.55
2023-04-21T15:19:58.523Z,6.78
2023-04-21T15:25:01.362Z,6.55
2023-04-21T15:30:04.825Z,6.90
2023-04-21T15:35:09.902Z,6.30
2023-04-21T15:40:13.259Z,6.40
2023-04-21T15:45:17.819Z,6.18
2023-04-21T15:50:23.223Z,6.68
2023-04-21T15:55:27.850Z,5.90
2023-04-21T16:00:30.690Z,5.97
2023-04-21T16:05:35.065Z,6.07
2023-04-21T16:10:38.079Z,6.35
2023-04-21T16:15:41.331Z,5.60
2023-04-21T16:20:46.121Z,6.25
2023-04-21T16:25:49.570Z,6.10
2023-04-21T16:30:52.378Z,6.95
2023-04-21T16:35:57.685Z,6.40
2023-04-21T16:41:00.684Z,6.22
2023-04-21T16:46:03.502Z,6.80
2023-04-21T16:51:07.838Z,6.28
2023-04-21T16:56:10.993Z,6.22
2023-04-21T17:01:14.581Z,6.25
2023-04-21T17:06:20.971Z,6.30
2023-04-21T17:11:23.730Z,6.47
2023-04-21T17:16:26.600Z,6.43
2023-04-21T17:21:31.709Z,6.50
2023-04-21T17:26:34.663Z,7.00
2023-04-21T17:31:37.953Z,6.78
2023-04-21T17:36:44.220Z,6.85
2023-04-21T17:41:48.374Z,6.40
2023-04-21T17:46:52.271Z,6.38
2023-04-21T17:51:56.611Z,6.68
2023-04-21T17:56:59.518Z,6.53
2023-04-21T18:02:02.437Z,8.23
2023-04-21T18:07:07.131Z,6.68
2023-04-21T18:12:10.058Z,6.95
2023-04-21T18:17:14.702Z,6.00
2023-04-21T18:22:20.778Z,6.32
2023-04-21T18:27:23.677Z,6.80
2023-04-21T18:32:26.732Z,7.35
2023-04-21T18:37:30.997Z,7.32
2023-04-21T18:42:34.639Z,7.15
2023-04-21T18:47:39.218Z,6.68
2023-04-21T18:52:43.514Z,6.60
2023-04-21T18:57:46.389Z,6.80
2023-04-21T19:02:51.099Z,7.60
2023-04-21T19:07:55.393Z,7.45
2023-04-21T19:12:58.201Z,6.70
2023-04-21T19:18:01.110Z,7.30
2023-04-21T19:23:05.658Z,7.38
2023-04-21T19:28:08.628Z,6.78
2023-04-21T19:33:11.496Z,6.43
2023-04-21T19:38:16.037Z,6.00
2023-04-21T19:43:20.224Z,5.82
2023-04-21T19:48:23.973Z,6.43
2023-04-21T19:53:28.216Z,6.38
2023-04-21T19:58:40.151Z,6.00
2023-04-21T20:03:43.722Z,5.63
2023-04-21T20:08:48.094Z,5.63
2023-04-21T20:13:51.179Z,6.47
2023-04-21T20:18:54.023Z,5.38
2023-04-21T20:23:58.266Z,5.35
2023-04-21T20:29:01.103Z,5.25
2023-04-21T20:34:03.969Z,5.40
2023-04-21T20:39:08.412Z,5.63
2023-04-21T20:44:12.711Z,7.03
2023-04-21T20:49:15.539Z,5.90
2023-04-21T20:54:19.705Z,5.53
2023-04-21T20:59:22.446Z,4.57
2023-04-21T21:04:25.260Z,4.53
2023-04-21T21:09:29.512Z,4.43
2023-04-21T21:14:32.410Z,4.60
2023-04-21T21:19:35.236Z,5.03
2023-04-21T21:24:39.448Z,4.78
2023-04-21T21:29:44.258Z,4.20
2023-04-21T21:34:47.476Z,4.47
2023-04-21T21:39:52.611Z,4.78
2023-04-21T21:44:55.403Z,4.80
2023-04-21T21:49:59.063Z,4.60
2023-04-21T21:55:03.160Z,5.55
2023-04-21T22:00:08.156Z,4.95
2023-04-21T22:05:11.611Z,5.15
2023-04-21T22:10:15.905Z,4.38
2023-04-21T22:15:19.630Z,4.50
2023-04-21T22:20:22.805Z,4.25
2023-04-21T22:25:27.710Z,4.28
2023-04-21T22:30:30.671Z,4.32
2023-04-21T22:35:33.412Z,4.38
2023-04-21T22:40:37.695Z,4.22
2023-04-21T22:45:41.232Z,4.30
2023-04-21T22:50:44.815Z,4.18
2023-04-21T22:55:49.108Z,3.92
2023-04-21T23:00:51.997Z,4.05
2023-04-21T23:05:54.816Z,3.97
2023-04-21T23:10:59.095Z,3.83
2023-04-21T23:16:02.130Z,3.65
2023-04-21T23:21:05.121Z,3.90
2023-04-21T23:26:09.243Z,3.40
2023-04-21T23:31:12.656Z,3.72
2023-04-21T23:36:15.405Z,3.92
2023-04-21T23:41:19.486Z,3.28
2023-04-21T23:46:22.224Z,4.07
2023-04-21T23:51:25.137Z,3.70
2023-04-21T23:56:29.343Z,3.63
